createdAt,value
2022-08-20T00:00:38.220Z,9.48
2022-08-20T00:01:41.886Z,10.70
2022-08-20T00:02:45.733Z,10.55
2022-08-20T00:03:50.206Z,10.30
2022-08-20T00:04:54.970Z,13.38
2022-08-20T00:05:59.611Z,10.55
2022-08-20T00:07:01.364Z,13.73
2022-08-20T00:08:05.035Z,10.27
2022-08-20T00:09:07.051Z,11.20
2022-08-20T00:10:10.640Z,12.18
2022-08-20T00:11:15.519Z,10.48
2022-08-20T00:12:18.515Z,11.20
2022-08-20T00:13:22.778Z,11.52
2022-08-20T00:14:26.719Z,12.57
2022-08-20T00:15:32.902Z,10.80
2022-08-20T00:16:37.353Z,11.18
2022-08-20T00:17:39.110Z,11.32
2022-08-20T00:18:42.173Z,10.15
2022-08-20T00:19:44.818Z,13.23
2022-08-20T00:20:52.595Z,13.77
2022-08-20T00:21:58.115Z,11.82
2022-08-20T00:23:00.310Z,14.63
2022-08-20T00:24:03.336Z,12.93
2022-08-20T00:25:06.508Z,12.02
2022-08-20T00:26:10.454Z,12.02
2022-08-20T00:27:12.514Z,11.65
2022-08-20T00:28:15.514Z,11.80
2022-08-20T00:29:17.171Z,12.43
2022-08-20T00:30:24.812Z,11.00
2022-08-20T00:31:26.659Z,12.45
2022-08-20T00:32:29.323Z,14.95
2022-08-20T00:33:31.353Z,12.45
2022-08-20T00:34:33.951Z,12.52
2022-08-20T00:35:37.442Z,13.10
2022-08-20T00:36:40.248Z,13.13
2022-08-20T00:37:42.387Z,14.35
2022-08-20T00:38:47.291Z,11.27
2022-08-20T00:39:48.955Z,13.20
2022-08-20T00:40:54.818Z,13.48
2022-08-20T00:41:56.727Z,13.32
2022-08-20T00:43:00.821Z,13.07
2022-08-20T00:44:10.132Z,13.00
2022-08-20T00:45:13.683Z,13.50
2022-08-20T00:46:28.835Z,14.75
2022-08-20T00:47:33.719Z,16.35
2022-08-20T00:48:38.782Z,12.80
2022-08-20T00:49:40.554Z,15.38
2022-08-20T00:50:43.166Z,13.57
2022-08-20T00:51:47.259Z,17.00
2022-08-20T00:52:52.270Z,19.10
2022-08-20T00:53:56.154Z,17.10
2022-08-20T00:55:00.494Z,14.32
2022-08-20T00:56:02.533Z,14.73
2022-08-20T00:57:08.518Z,17.00
2022-08-20T00:58:10.407Z,15.05
2022-08-20T00:59:16.555Z,16.80
2022-08-20T01:00:22.562Z,15.63
2022-08-20T01:01:26.638Z,16.67
2022-08-20T01:02:29.373Z,15.70
2022-08-20T01:03:32.505Z,15.25
2022-08-20T01:04:35.177Z,14.90
2022-08-20T01:05:38.103Z,17.30
2022-08-20T01:06:40.259Z,14.65
2022-08-20T01:07:43.264Z,18.70
2022-08-20T01:08:44.892Z,15.02
2022-08-20T01:09:58.250Z,16.83
2022-08-20T01:11:10.116Z,15.45
2022-08-20T01:12:14.044Z,16.15
2022-08-20T01:13:20.628Z,15.15
2022-08-20T01:14:28.199Z,15.57
2022-08-20T01:15:31.760Z,15.27
2022-08-20T01:16:36.568Z,14.73
2022-08-20T01:17:46.121Z,12.48
2022-08-20T01:18:48.592Z,11.48
2022-08-20T01:19:55.868Z,10.80
2022-08-20T01:20:59.426Z,12.30
2022-08-20T01:22:23.334Z,11.38
2022-08-20T01:23:30.360Z,10.70
2022-08-20T01:24:35.850Z,12.30
2022-08-20T01:25:44.271Z,10.70
2022-08-20T01:26:47.440Z,11.27
2022-08-20T01:27:53.198Z,9.55
2022-08-20T01:29:01.438Z,8.88
2022-08-20T01:30:06.215Z,8.55
2022-08-20T01:31:14.049Z,7.80
2022-08-20T01:32:15.719Z,6.80
2022-08-20T01:33:18.896Z,9.30
2022-08-20T01:34:21.083Z,8.30
2022-08-20T01:35:24.726Z,9.05
2022-08-20T01:36:31.395Z,7.40
2022-08-20T01:37:33.164Z,8.40
2022-08-20T01:38:37.433Z,7.88
2022-08-20T01:39:39.099Z,9.85
2022-08-20T01:40:56.511Z,8.48
2022-08-20T01:42:06.475Z,8.18
2022-08-20T01:43:09.186Z,7.93
2022-08-20T01:44:16.898Z,8.38
2022-08-20T01:45:20.587Z,9.63
2022-08-20T01:46:32.784Z,9.80
2022-08-20T01:47:38.476Z,9.18
2022-08-20T01:48:42.936Z,9.88
2022-08-20T01:49:46.949Z,9.60
2022-08-20T01:50:55.337Z,10.40
2022-08-20T01:51:59.940Z,11.38
2022-08-20T01:53:08.372Z,12.38
2022-08-20T01:54:10.336Z,15.27
2022-08-20T01:55:13.279Z,11.88
2022-08-20T01:56:18.410Z,12.13
2022-08-20T01:57:22.177Z,12.13
2022-08-20T01:58:23.859Z,14.02
2022-08-20T01:59:26.509Z,12.85
2022-08-20T02:00:28.513Z,12.43
2022-08-20T02:01:45.905Z,11.93
2022-08-20T02:02:49.328Z,12.48
2022-08-20T02:03:52.303Z,11.23
2022-08-20T02:04:54.323Z,11.90
2022-08-20T02:05:57.356Z,11.93
2022-08-20T02:07:01.313Z,13.32
2022-08-20T02:08:04.601Z,12.35
2022-08-20T02:09:06.932Z,11.10
2022-08-20T02:10:12.018Z,14.40
2022-08-20T02:11:14.136Z,12.30
2022-08-20T02:12:18.702Z,11.38
2022-08-20T02:13:20.384Z,12.98
2022-08-20T02:14:23.181Z,12.82
2022-08-20T02:15:34.415Z,16.50
2022-08-20T02:16:39.477Z,13.40
2022-08-20T02:17:41.773Z,12.63
2022-08-20T02:18:44.387Z,11.50
2022-08-20T02:19:49.710Z,28.83
2022-08-20T02:20:52.721Z,12.40
2022-08-20T02:21:58.043Z,14.77
2022-08-20T02:23:01.393Z,16.92
2022-08-20T02:24:03.708Z,13.80
2022-08-20T02:25:08.747Z,16.02
2022-08-20T02:26:10.784Z,17.45
2022-08-20T02:27:14.090Z,13.00
2022-08-20T02:28:19.761Z,13.23
2022-08-20T02:29:22.539Z,13.70
2022-08-20T02:30:27.726Z,13.00
2022-08-20T02:31:34.805Z,14.95
2022-08-20T02:32:36.890Z,13.90
2022-08-20T02:33:39.721Z,12.55
2022-08-20T02:34:41.370Z,14.38
2022-08-20T02:35:45.126Z,11.52
2022-08-20T02:36:49.281Z,14.23
2022-08-20T02:37:52.969Z,13.45
2022-08-20T02:38:54.807Z,12.20
2022-08-20T02:39:57.471Z,12.02
2022-08-20T02:40:59.175Z,15.88
2022-08-20T02:42:03.840Z,14.43
2022-08-20T02:43:05.879Z,13.13
2022-08-20T02:44:13.954Z,13.35
2022-08-20T02:45:19.013Z,13.32
2022-08-20T02:46:21.783Z,15.25
2022-08-20T02:47:23.537Z,13.95
2022-08-20T02:48:26.756Z,13.07
2022-08-20T02:49:28.400Z,14.60
2022-08-20T02:50:31.366Z,14.82
2022-08-20T02:51:33.392Z,13.18
2022-08-20T02:52:35.984Z,13.95
2022-08-20T02:53:41.743Z,14.82
2022-08-20T02:54:43.376Z,16.38
2022-08-20T02:55:46.016Z,13.55
2022-08-20T02:56:47.656Z,13.27
2022-08-20T02:57:50.841Z,15.23
2022-08-20T02:58:56.195Z,15.55
2022-08-20T02:59:59.249Z,14.65
2022-08-20T03:01:02.586Z,14.23
2022-08-20T03:02:04.227Z,15.48
2022-08-20T03:03:08.283Z,14.23
2022-08-20T03:04:10.267Z,12.23
2022-08-20T03:05:13.498Z,15.55
2022-08-20T03:06:15.238Z,14.43
2022-08-20T03:07:18.070Z,13.18
2022-08-20T03:08:20.035Z,12.50
2022-08-20T03:09:22.615Z,16.52
2022-08-20T03:10:25.439Z,15.18
2022-08-20T03:11:28.002Z,13.35
2022-08-20T03:12:30.144Z,13.30
2022-08-20T03:13:32.783Z,15.02
2022-08-20T03:14:35.287Z,13.70
2022-08-20T03:15:41.600Z,15.93
2022-08-20T03:16:44.183Z,14.48
2022-08-20T03:17:46.348Z,16.33
2022-08-20T03:18:52.053Z,13.00
2022-08-20T03:19:53.909Z,14.23
2022-08-20T03:20:56.580Z,14.13
2022-08-20T03:21:59.154Z,14.98
2022-08-20T03:23:01.831Z,13.30
2022-08-20T03:24:03.982Z,15.32
2022-08-20T03:25:07.576Z,14.68
2022-08-20T03:26:12.479Z,14.23
2022-08-20T03:27:14.304Z,15.00
2022-08-20T03:28:17.367Z,15.55
2022-08-20T03:29:19.004Z,16.63
2022-08-20T03:30:21.835Z,18.33
2022-08-20T03:31:24.839Z,15.38
2022-08-20T03:32:27.424Z,16.05
2022-08-20T03:33:29.301Z,13.80
2022-08-20T03:34:32.585Z,15.45
2022-08-20T03:35:35.019Z,16.02
2022-08-20T03:36:37.653Z,16.52
2022-08-20T03:37:39.801Z,15.93
2022-08-20T03:38:48.339Z,14.32
2022-08-20T03:39:50.030Z,15.95
2022-08-20T03:40:52.879Z,15.48
2022-08-20T03:41:55.159Z,12.38
2022-08-20T03:42:58.371Z,13.93
2022-08-20T03:44:00.042Z,13.25
2022-08-20T03:45:02.753Z,14.45
2022-08-20T03:46:04.539Z,14.35
2022-08-20T03:47:09.555Z,12.63
2022-08-20T03:48:13.536Z,14.02
2022-08-20T03:49:16.705Z,13.40
2022-08-20T03:50:23.697Z,13.55
2022-08-20T03:51:26.483Z,15.60
2022-08-20T03:52:29.592Z,14.10
2022-08-20T03:53:32.297Z,12.55
2022-08-20T03:54:33.973Z,14.00
2022-08-20T03:55:36.584Z,14.15
2022-08-20T03:56:38.419Z,12.65
2022-08-20T03:57:45.667Z,13.27
2022-08-20T03:58:47.659Z,14.88
2022-08-20T03:59:54.829Z,12.55
2022-08-20T04:01:00.928Z,13.90
2022-08-20T04:02:03.552Z,13.43
2022-08-20T04:03:08.311Z,13.05
2022-08-20T04:04:12.245Z,12.88
2022-08-20T04:05:14.593Z,16.02
2022-08-20T04:06:18.212Z,11.55
2022-08-20T04:07:25.813Z,12.38
2022-08-20T04:08:30.342Z,12.93
2022-08-20T04:09:31.958Z,11.65
2022-08-20T04:10:34.538Z,11.98
2022-08-20T04:11:37.508Z,15.18
2022-08-20T04:12:40.834Z,13.23
2022-08-20T04:13:50.458Z,14.15
2022-08-20T04:14:53.834Z,14.25
2022-08-20T04:15:55.826Z,21.50
2022-08-20T04:16:58.539Z,15.98
2022-08-20T04:18:00.500Z,14.15
2022-08-20T04:19:04.975Z,15.25
2022-08-20T04:20:07.968Z,15.75
2022-08-20T04:21:13.930Z,13.05
2022-08-20T04:22:15.603Z,13.88
2022-08-20T04:23:18.770Z,14.60
2022-08-20T04:24:30.537Z,13.57
2022-08-20T04:25:36.391Z,13.52
2022-08-20T04:26:38.070Z,13.05
2022-08-20T04:27:41.139Z,11.98
2022-08-20T04:28:42.862Z,16.83
2022-08-20T04:29:45.637Z,13.52
2022-08-20T04:30:51.634Z,13.20
2022-08-20T04:31:54.688Z,13.27
2022-08-20T04:32:56.724Z,14.15
2022-08-20T04:33:59.364Z,15.40
2022-08-20T04:35:02.543Z,15.38
2022-08-20T04:36:06.173Z,12.63
2022-08-20T04:37:16.895Z,12.52
2022-08-20T04:38:24.580Z,15.25
2022-08-20T04:39:26.798Z,14.07
2022-08-20T04:40:47.571Z,12.93
2022-08-20T04:41:50.179Z,13.48
2022-08-20T04:42:53.937Z,14.13
2022-08-20T04:43:58.029Z,12.98
2022-08-20T04:44:59.689Z,14.30
2022-08-20T04:46:06.101Z,16.98
2022-08-20T04:47:07.897Z,16.98
2022-08-20T04:48:14.891Z,13.90
2022-08-20T04:49:16.923Z,13.55
2022-08-20T04:50:21.753Z,15.68
2022-08-20T04:51:24.423Z,15.68
2022-08-20T04:52:26.416Z,16.13
2022-08-20T04:53:29.530Z,14.18
2022-08-20T04:54:31.383Z,14.93
2022-08-20T04:55:34.321Z,14.23
2022-08-20T04:56:39.670Z,14.88
2022-08-20T04:57:42.327Z,16.33
2022-08-20T04:58:47.937Z,15.27
2022-08-20T04:59:51.821Z,16.25
2022-08-20T05:00:56.688Z,14.70
2022-08-20T05:02:04.197Z,15.23
2022-08-20T05:03:06.940Z,14.90
2022-08-20T05:04:09.616Z,14.32
2022-08-20T05:05:12.893Z,18.23
2022-08-20T05:06:18.074Z,18.33
2022-08-20T05:07:19.795Z,15.82
2022-08-20T05:08:25.105Z,14.73
2022-08-20T05:09:26.779Z,16.05
2022-08-20T05:10:30.054Z,17.00
2022-08-20T05:11:35.826Z,17.33
2022-08-20T05:12:41.107Z,17.45
2022-08-20T05:13:43.925Z,16.73
2022-08-20T05:14:45.595Z,18.63
2022-08-20T05:15:48.548Z,18.17
2022-08-20T05:16:50.764Z,15.73
2022-08-20T05:17:56.889Z,16.63
2022-08-20T05:18:58.699Z,18.33
2022-08-20T05:20:01.395Z,16.63
2022-08-20T05:21:05.918Z,16.73
2022-08-20T05:22:10.406Z,18.40
2022-08-20T05:23:13.517Z,15.57
2022-08-20T05:24:16.391Z,18.13
2022-08-20T05:25:18.189Z,17.98
2022-08-20T05:26:20.874Z,16.80
2022-08-20T05:27:26.896Z,17.15
2022-08-20T05:28:32.577Z,16.35
2022-08-20T05:29:37.217Z,17.70
2022-08-20T05:30:41.215Z,16.98
2022-08-20T05:31:43.881Z,19.35
2022-08-20T05:32:46.895Z,17.42
2022-08-20T05:33:51.544Z,18.48
2022-08-20T05:34:54.686Z,18.65
2022-08-20T05:35:58.535Z,20.98
2022-08-20T05:37:04.147Z,17.38
2022-08-20T05:38:13.664Z,18.15
2022-08-20T05:39:15.892Z,16.00
2022-08-20T05:40:18.604Z,19.58
2022-08-20T05:41:27.707Z,16.88
2022-08-20T05:42:32.091Z,17.83
2022-08-20T05:43:33.845Z,15.85
2022-08-20T05:44:36.807Z,17.88
2022-08-20T05:45:40.454Z,18.20
2022-08-20T05:46:44.406Z,15.65
2022-08-20T05:47:46.052Z,16.15
2022-08-20T05:48:52.119Z,15.82
2022-08-20T05:49:53.778Z,16.38
2022-08-20T05:50:56.761Z,16.08
2022-08-20T05:51:59.213Z,17.45
2022-08-20T05:53:02.193Z,19.75
2022-08-20T05:54:06.114Z,18.13
2022-08-20T05:55:11.372Z,15.10
2022-08-20T05:56:13.235Z,18.48
2022-08-20T05:57:19.151Z,19.27
2022-08-20T05:58:23.557Z,17.25
2022-08-20T05:59:27.606Z,14.45
2022-08-20T06:00:29.957Z,15.20
2022-08-20T06:01:33.630Z,14.50
2022-08-20T06:02:53.990Z,14.63
2022-08-20T06:04:14.398Z,17.55
2022-08-20T06:05:16.608Z,16.50
2022-08-20T06:06:39.091Z,17.13
2022-08-20T06:07:42.434Z,17.10
2022-08-20T06:08:45.030Z,15.75
2022-08-20T06:09:48.631Z,15.43
2022-08-20T06:10:51.219Z,11.55
2022-08-20T06:11:52.864Z,12.75
2022-08-20T06:13:02.866Z,14.57
2022-08-20T06:14:04.684Z,14.68
2022-08-20T06:15:08.646Z,14.48
2022-08-20T06:16:13.679Z,16.38
2022-08-20T06:17:18.604Z,16.63
2022-08-20T06:18:27.602Z,13.57
2022-08-20T06:19:32.277Z,15.15
2022-08-20T06:20:36.415Z,15.10
2022-08-20T06:21:38.295Z,13.95
2022-08-20T06:22:40.895Z,14.10
2022-08-20T06:23:54.494Z,16.60
2022-08-20T06:25:02.710Z,13.93
2022-08-20T06:26:07.596Z,12.05
2022-08-20T06:27:14.274Z,16.38
2022-08-20T06:28:16.971Z,14.23
2022-08-20T06:29:19.315Z,17.30
2022-08-20T06:30:22.024Z,13.52
2022-08-20T06:31:23.723Z,17.45
2022-08-20T06:32:32.485Z,15.32
2022-08-20T06:33:34.451Z,16.15
2022-08-20T06:34:37.134Z,15.90
2022-08-20T06:35:38.847Z,15.52
2022-08-20T06:36:41.425Z,17.55
2022-08-20T06:37:43.197Z,16.15
2022-08-20T06:38:46.226Z,17.15
2022-08-20T06:39:48.209Z,15.80
2022-08-20T06:40:52.298Z,13.45
2022-08-20T06:41:55.565Z,16.25
2022-08-20T06:42:58.831Z,17.20
2022-08-20T06:44:00.493Z,16.65
2022-08-20T06:45:04.980Z,16.75
2022-08-20T06:46:06.921Z,18.08
2022-08-20T06:47:09.745Z,13.98
2022-08-20T06:48:15.248Z,15.35
2022-08-20T06:49:18.548Z,14.95
2022-08-20T06:50:22.290Z,15.02
2022-08-20T06:51:24.881Z,14.85
2022-08-20T06:52:47.093Z,15.35
2022-08-20T06:53:49.254Z,16.33
2022-08-20T06:54:50.944Z,17.75
2022-08-20T06:55:56.138Z,16.35
2022-08-20T06:56:57.997Z,16.35
2022-08-20T06:58:02.315Z,16.70
2022-08-20T06:59:03.933Z,15.20
2022-08-20T07:00:09.895Z,15.18
2022-08-20T07:01:13.816Z,15.43
2022-08-20T07:02:16.327Z,15.82
2022-08-20T07:03:18.892Z,15.95
2022-08-20T07:04:21.761Z,14.20
2022-08-20T07:05:23.395Z,16.85
2022-08-20T07:06:26.722Z,18.90
2022-08-20T07:07:28.606Z,14.85
2022-08-20T07:08:31.214Z,15.45
2022-08-20T07:09:32.841Z,14.38
2022-08-20T07:10:35.423Z,14.75
2022-08-20T07:11:38.412Z,16.75
2022-08-20T07:12:41.070Z,12.98
2022-08-20T07:13:42.701Z,15.32
2022-08-20T07:14:45.304Z,14.35
2022-08-20T07:15:48.166Z,17.58
2022-08-20T07:16:55.569Z,12.23
2022-08-20T07:18:01.450Z,17.48
2022-08-20T07:19:04.838Z,13.43
2022-08-20T07:20:07.649Z,15.73
2022-08-20T07:21:12.257Z,13.05
2022-08-20T07:22:14.477Z,13.75
2022-08-20T07:23:17.100Z,11.65
2022-08-20T07:24:19.240Z,12.20
2022-08-20T07:25:22.825Z,14.00
2022-08-20T07:26:24.627Z,12.85
2022-08-20T07:27:28.569Z,12.20
2022-08-20T07:28:31.962Z,10.20
2022-08-20T07:29:48.500Z,10.75
2022-08-20T07:31:13.642Z,11.70
2022-08-20T07:32:39.459Z,12.77
2022-08-20T07:33:42.611Z,12.40
2022-08-20T07:34:46.298Z,8.52
2022-08-20T07:35:50.955Z,12.27
2022-08-20T07:36:53.570Z,10.75
2022-08-20T07:37:56.803Z,11.45
2022-08-20T07:39:06.082Z,10.43
2022-08-20T07:40:12.994Z,10.10
2022-08-20T07:41:15.796Z,10.00
2022-08-20T07:42:17.476Z,9.65
2022-08-20T07:43:23.150Z,10.50
2022-08-20T07:44:31.086Z,10.35
2022-08-20T07:45:34.157Z,8.32
2022-08-20T07:46:35.844Z,8.80
2022-08-20T07:47:39.235Z,9.77
2022-08-20T07:48:46.199Z,8.00
2022-08-20T07:49:48.211Z,8.57
2022-08-20T07:50:50.824Z,8.18
2022-08-20T07:51:52.494Z,7.80
2022-08-20T07:52:55.288Z,6.95
2022-08-20T07:53:59.229Z,7.70
2022-08-20T07:55:02.174Z,7.22
2022-08-20T07:56:06.289Z,6.97
2022-08-20T07:57:09.077Z,6.82
2022-08-20T07:58:17.157Z,6.63
2022-08-20T07:59:21.399Z,6.55
2022-08-20T08:00:24.915Z,8.18
2022-08-20T08:01:30.173Z,6.03
2022-08-20T08:02:32.775Z,6.20
2022-08-20T08:03:39.527Z,7.88
2022-08-20T08:04:52.103Z,6.43
2022-08-20T08:05:53.918Z,6.45
2022-08-20T08:06:59.948Z,7.63
2022-08-20T08:08:06.856Z,6.28
2022-08-20T08:09:15.268Z,6.47
2022-08-20T08:10:20.235Z,8.32
2022-08-20T08:11:22.860Z,5.95
2022-08-20T08:12:29.015Z,9.13
2022-08-20T08:13:35.681Z,6.57
2022-08-20T08:14:40.388Z,6.32
2022-08-20T08:15:48.248Z,5.05
2022-08-20T08:16:50.142Z,5.43
2022-08-20T08:17:53.632Z,6.13
2022-08-20T08:18:56.808Z,6.03
2022-08-20T08:19:59.289Z,6.80
2022-08-20T08:21:01.957Z,5.93
2022-08-20T08:22:04.882Z,4.47
2022-08-20T08:23:07.581Z,5.28
2022-08-20T08:24:21.090Z,4.50
2022-08-20T08:25:25.191Z,4.72
2022-08-20T08:26:29.040Z,4.55
2022-08-20T08:27:32.603Z,6.05
2022-08-20T08:28:36.926Z,5.93
2022-08-20T08:29:41.026Z,6.03
2022-08-20T08:30:43.324Z,7.85
2022-08-20T08:31:45.972Z,4.25
2022-08-20T08:33:06.303Z,4.28
2022-08-20T08:34:09.109Z,5.13
2022-08-20T08:35:11.397Z,7.15
2022-08-20T08:36:16.768Z,4.45
2022-08-20T08:37:18.444Z,4.82
2022-08-20T08:38:22.905Z,5.32
2022-08-20T08:39:24.609Z,4.05
2022-08-20T08:40:34.875Z,4.80
2022-08-20T08:41:38.216Z,5.85
2022-08-20T08:42:44.831Z,5.80
2022-08-20T08:43:48.207Z,6.95
2022-08-20T08:44:53.893Z,6.20
2022-08-20T08:46:01.466Z,5.15
2022-08-20T08:47:18.188Z,5.80
2022-08-20T08:48:20.027Z,4.72
2022-08-20T08:49:25.010Z,4.85
2022-08-20T08:50:54.106Z,5.60
2022-08-20T08:52:00.430Z,4.45
2022-08-20T08:53:05.500Z,4.03
2022-08-20T08:54:08.600Z,3.38
2022-08-20T08:55:15.859Z,3.35
2022-08-20T08:56:18.531Z,3.20
2022-08-20T08:57:21.564Z,4.15
2022-08-20T08:58:23.262Z,3.15
2022-08-20T08:59:30.669Z,3.58
2022-08-20T09:00:57.453Z,3.80
2022-08-20T09:02:04.637Z,3.38
2022-08-20T09:03:09.292Z,5.40
2022-08-20T09:04:13.269Z,3.80
2022-08-20T09:05:17.313Z,3.22
2022-08-20T09:06:23.876Z,4.95
2022-08-20T09:07:28.166Z,4.30
2022-08-20T09:08:33.799Z,3.53
2022-08-20T09:09:38.979Z,4.30
2022-08-20T09:10:40.686Z,6.25
2022-08-20T09:11:48.238Z,6.63
2022-08-20T09:12:50.118Z,3.30
2022-08-20T09:13:55.591Z,3.58
2022-08-20T09:14:57.528Z,4.15
2022-08-20T09:16:01.803Z,4.05
2022-08-20T09:17:04.370Z,3.13
2022-08-20T09:18:07.017Z,2.95
2022-08-20T09:19:08.682Z,3.25
2022-08-20T09:20:15.266Z,2.95
2022-08-20T09:21:17.317Z,3.72
2022-08-20T09:22:22.131Z,3.30
2022-08-20T09:23:24.038Z,4.60
2022-08-20T09:24:26.676Z,4.07
2022-08-20T09:25:28.355Z,6.03
2022-08-20T09:26:30.920Z,3.85
2022-08-20T09:27:32.758Z,1.77
2022-08-20T09:28:37.274Z,2.28
2022-08-20T09:29:39.386Z,2.10
2022-08-20T09:30:41.969Z,3.03
2022-08-20T09:31:48.071Z,3.45
2022-08-20T09:32:50.189Z,3.25
2022-08-20T09:33:52.994Z,4.25
2022-08-20T09:34:56.407Z,3.67
2022-08-20T09:35:59.046Z,4.78
2022-08-20T09:37:00.708Z,4.10
2022-08-20T09:38:03.333Z,3.08
2022-08-20T09:39:04.991Z,3.05
2022-08-20T09:40:09.637Z,2.30
2022-08-20T09:41:11.698Z,2.47
2022-08-20T09:42:16.815Z,2.78
2022-08-20T09:43:19.410Z,2.78
2022-08-20T09:44:21.097Z,2.63
2022-08-20T09:45:25.262Z,2.75
2022-08-20T09:46:27.244Z,4.07
2022-08-20T09:47:31.572Z,2.53
2022-08-20T09:48:34.143Z,2.60
2022-08-20T09:49:37.413Z,2.22
2022-08-20T09:50:43.216Z,3.50
2022-08-20T09:51:44.996Z,2.70
2022-08-20T09:52:50.259Z,2.92
2022-08-20T09:53:54.982Z,2.53
2022-08-20T09:55:02.630Z,4.20
2022-08-20T09:56:05.318Z,3.05
2022-08-20T09:57:08.315Z,3.47
2022-08-20T09:58:16.993Z,4.05
2022-08-20T09:59:18.618Z,3.60
2022-08-20T10:00:21.377Z,5.93
2022-08-20T10:01:23.237Z,4.75
2022-08-20T10:02:26.174Z,4.47
2022-08-20T10:03:29.155Z,4.97
2022-08-20T10:04:31.739Z,3.33
2022-08-20T10:05:34.460Z,3.58
2022-08-20T10:06:40.342Z,4.75
2022-08-20T10:07:43.335Z,3.38
2022-08-20T10:08:44.938Z,3.65
2022-08-20T10:09:47.560Z,3.25
2022-08-20T10:10:50.153Z,4.72
2022-08-20T10:11:51.971Z,4.05
2022-08-20T10:12:55.187Z,3.53
2022-08-20T10:13:56.887Z,2.97
2022-08-20T10:14:59.456Z,2.90
2022-08-20T10:16:01.087Z,4.43
2022-08-20T10:17:04.387Z,3.30
2022-08-20T10:18:07.851Z,3.10
2022-08-20T10:19:11.080Z,3.38
2022-08-20T10:20:14.789Z,3.80
2022-08-20T10:21:16.782Z,3.90
2022-08-20T10:22:19.425Z,2.95
2022-08-20T10:23:21.173Z,3.75
2022-08-20T10:24:24.355Z,4.75
2022-08-20T10:25:25.980Z,5.35
2022-08-20T10:26:28.679Z,4.03
2022-08-20T10:27:31.332Z,3.38
2022-08-20T10:28:32.942Z,4.32
2022-08-20T10:29:35.741Z,3.67
2022-08-20T10:30:37.536Z,4.68
2022-08-20T10:31:40.203Z,6.15
2022-08-20T10:32:42.921Z,3.90
2022-08-20T10:33:44.575Z,3.75
2022-08-20T10:34:48.621Z,4.65
2022-08-20T10:35:51.243Z,4.22
2022-08-20T10:36:56.476Z,5.28
2022-08-20T10:37:59.142Z,4.13
2022-08-20T10:39:00.811Z,4.40
2022-08-20T10:40:04.275Z,3.65
2022-08-20T10:41:06.145Z,3.50
2022-08-20T10:42:08.807Z,3.00
2022-08-20T10:43:10.686Z,5.53
2022-08-20T10:44:13.335Z,2.85
2022-08-20T10:45:16.211Z,3.63
2022-08-20T10:46:18.822Z,4.15
2022-08-20T10:47:22.396Z,2.53
2022-08-20T10:48:25.447Z,4.35
2022-08-20T10:49:28.077Z,3.47
2022-08-20T10:50:32.055Z,3.10
2022-08-20T10:51:33.659Z,4.03
2022-08-20T10:52:36.259Z,2.95
2022-08-20T10:53:37.867Z,2.17
2022-08-20T10:54:42.296Z,2.35
2022-08-20T10:55:44.323Z,4.22
2022-08-20T10:56:46.908Z,5.50
2022-08-20T10:57:48.701Z,6.13
2022-08-20T10:58:51.305Z,3.28
2022-08-20T10:59:56.217Z,3.40
2022-08-20T11:00:58.769Z,6.07
2022-08-20T11:02:00.481Z,4.15
2022-08-20T11:03:03.394Z,3.97
2022-08-20T11:04:05.153Z,5.75
2022-08-20T11:05:08.849Z,2.88
2022-08-20T11:06:12.103Z,3.47
2022-08-20T11:07:17.867Z,3.60
2022-08-20T11:08:20.602Z,3.90
2022-08-20T11:09:36.012Z,2.60
2022-08-20T11:10:39.163Z,5.15
2022-08-20T11:11:40.843Z,5.82
2022-08-20T11:12:44.783Z,3.58
2022-08-20T11:13:47.776Z,3.88
2022-08-20T11:14:51.143Z,2.75
2022-08-20T11:15:52.818Z,4.22
2022-08-20T11:16:55.418Z,2.78
2022-08-20T11:17:58.266Z,3.88
2022-08-20T11:19:00.084Z,3.95
2022-08-20T11:20:04.515Z,3.15
2022-08-20T11:21:06.519Z,4.78
2022-08-20T11:22:13.175Z,4.55
2022-08-20T11:23:14.842Z,4.65
2022-08-20T11:24:18.879Z,5.53
2022-08-20T11:25:20.938Z,5.13
2022-08-20T11:26:24.951Z,4.10
2022-08-20T11:27:28.359Z,2.83
2022-08-20T11:28:33.146Z,6.60
2022-08-20T11:29:34.886Z,7.35
2022-08-20T11:30:38.065Z,3.22
2022-08-20T11:31:39.716Z,3.22
2022-08-20T11:32:42.360Z,5.57
2022-08-20T11:33:44.952Z,3.85
2022-08-20T11:34:46.859Z,9.80
2022-08-20T11:35:50.196Z,6.70
2022-08-20T11:36:52.327Z,5.07
2022-08-20T11:37:58.428Z,4.85
2022-08-20T11:39:01.302Z,3.30
2022-08-20T11:40:05.508Z,4.45
2022-08-20T11:41:07.131Z,7.05
2022-08-20T11:42:11.511Z,3.65
2022-08-20T11:43:17.597Z,3.85
2022-08-20T11:44:21.689Z,3.20
2022-08-20T11:45:23.528Z,2.88
2022-08-20T11:46:28.585Z,4.55
2022-08-20T11:47:33.671Z,2.58
2022-08-20T11:48:35.437Z,4.45
2022-08-20T11:49:38.755Z,3.30
2022-08-20T11:50:40.457Z,3.55
2022-08-20T11:51:49.220Z,4.35
2022-08-20T11:52:51.595Z,3.40
2022-08-20T11:53:55.706Z,3.50
2022-08-20T11:54:58.239Z,2.85
2022-08-20T11:56:01.507Z,4.70
2022-08-20T11:57:03.508Z,3.13
2022-08-20T11:58:06.459Z,4.35
2022-08-20T11:59:08.071Z,3.55
2022-08-20T12:00:14.622Z,4.20
2022-08-20T12:01:16.262Z,3.80
2022-08-20T12:02:18.968Z,5.15
2022-08-20T12:03:21.666Z,6.78
2022-08-20T12:04:23.811Z,7.20
2022-08-20T12:05:30.374Z,3.95
2022-08-20T12:06:32.807Z,4.40
2022-08-20T12:07:35.415Z,3.65
2022-08-20T12:08:37.125Z,6.35
2022-08-20T12:09:50.254Z,3.67
2022-08-20T12:10:53.631Z,4.32
2022-08-20T12:11:55.213Z,6.13
2022-08-20T12:12:58.086Z,3.75
2022-08-20T12:13:59.850Z,5.32
2022-08-20T12:15:02.464Z,5.55
2022-08-20T12:16:05.003Z,4.68
2022-08-20T12:17:11.962Z,3.53
2022-08-20T12:18:13.574Z,3.78
2022-08-20T12:19:16.359Z,7.53
2022-08-20T12:20:18.182Z,5.32
2022-08-20T12:21:20.925Z,5.55
2022-08-20T12:22:25.148Z,3.63
2022-08-20T12:23:28.231Z,6.50
2022-08-20T12:24:29.863Z,4.68
2022-08-20T12:25:34.024Z,6.50
2022-08-20T12:26:36.622Z,4.45
2022-08-20T12:27:38.402Z,5.85
2022-08-20T12:28:40.973Z,4.43
2022-08-20T12:29:43.914Z,5.03
2022-08-20T12:30:46.472Z,6.10
2022-08-20T12:31:51.079Z,5.57
2022-08-20T12:32:52.752Z,5.20
2022-08-20T12:33:55.333Z,4.90
2022-08-20T12:34:57.689Z,4.47
2022-08-20T12:36:00.741Z,3.88
2022-08-20T12:37:02.938Z,4.72
2022-08-20T12:38:06.271Z,4.20
2022-08-20T12:39:09.392Z,3.30
2022-08-20T12:40:14.902Z,6.22
2022-08-20T12:41:19.180Z,5.68
2022-08-20T12:42:21.133Z,4.65
2022-08-20T12:43:25.249Z,4.90
2022-08-20T12:44:27.046Z,6.05
2022-08-20T12:45:30.120Z,4.20
2022-08-20T12:46:32.703Z,6.30
2022-08-20T12:47:36.564Z,3.97
2022-08-20T12:48:39.166Z,4.10
2022-08-20T12:49:42.026Z,4.85
2022-08-20T12:50:45.679Z,3.80
2022-08-20T12:51:47.279Z,4.38
2022-08-20T12:52:50.344Z,3.33
2022-08-20T12:53:51.991Z,4.88
2022-08-20T12:54:54.777Z,5.72
2022-08-20T12:55:57.359Z,4.13
2022-08-20T12:57:00.318Z,6.25
2022-08-20T12:58:04.273Z,4.70
2022-08-20T12:59:06.449Z,5.68
2022-08-20T13:00:13.152Z,3.10
2022-08-20T13:01:15.667Z,3.53
2022-08-20T13:02:18.859Z,5.28
2022-08-20T13:03:21.735Z,5.53
2022-08-20T13:04:23.497Z,6.05
2022-08-20T13:05:26.879Z,6.85
2022-08-20T13:06:28.487Z,3.63
2022-08-20T13:07:31.646Z,4.35
2022-08-20T13:08:33.310Z,3.28
2022-08-20T13:09:35.863Z,7.88
2022-08-20T13:10:45.655Z,2.88
2022-08-20T13:11:47.453Z,3.53
2022-08-20T13:12:51.473Z,6.50
2022-08-20T13:13:53.178Z,4.18
2022-08-20T13:14:57.175Z,4.60
2022-08-20T13:15:59.779Z,3.78
2022-08-20T13:17:01.914Z,2.78
2022-08-20T13:18:06.602Z,5.43
2022-08-20T13:19:08.294Z,5.43
2022-08-20T13:20:14.713Z,5.78
2022-08-20T13:21:16.431Z,5.13
2022-08-20T13:22:19.026Z,4.93
2022-08-20T13:23:21.633Z,5.85
2022-08-20T13:24:23.420Z,5.78
2022-08-20T13:25:26.347Z,5.65
2022-08-20T13:26:28.105Z,5.88
2022-08-20T13:27:30.765Z,2.97
2022-08-20T13:28:34.709Z,3.53
2022-08-20T13:29:36.567Z,5.82
2022-08-20T13:30:40.867Z,3.80
2022-08-20T13:31:42.603Z,3.95
2022-08-20T13:32:45.450Z,4.50
2022-08-20T13:33:48.084Z,4.20
2022-08-20T13:34:50.219Z,4.43
2022-08-20T13:35:52.817Z,4.07
2022-08-20T13:36:55.320Z,4.15
2022-08-20T13:37:57.967Z,5.78
2022-08-20T13:38:59.631Z,6.03
2022-08-20T13:40:03.112Z,3.95
2022-08-20T13:41:04.911Z,3.75
2022-08-20T13:42:08.013Z,4.18
2022-08-20T13:43:12.067Z,5.13
2022-08-20T13:44:16.385Z,4.18
2022-08-20T13:45:18.282Z,4.80
2022-08-20T13:46:20.963Z,4.70
2022-08-20T13:47:25.098Z,5.38
2022-08-20T13:48:27.695Z,5.45
2022-08-20T13:49:29.288Z,5.43
2022-08-20T13:50:37.059Z,4.22
2022-08-20T13:51:38.735Z,3.15
2022-08-20T13:52:42.582Z,5.65
2022-08-20T13:53:44.526Z,3.28
2022-08-20T13:54:47.090Z,5.85
2022-08-20T13:55:48.713Z,5.05
2022-08-20T13:56:51.295Z,5.32